createdAt,value
2023-02-19T00:01:40.420Z,8.50
2023-02-19T00:04:10.690Z,7.83
2023-02-19T00:06:38.249Z,8.10
2023-02-19T00:09:06.341Z,7.40
2023-02-19T00:11:35.417Z,7.80
2023-02-19T00:14:04.540Z,8.17
2023-02-19T00:16:34.608Z,7.37
2023-02-19T00:19:04.795Z,7.07
2023-02-19T00:21:32.545Z,5.80
2023-02-19T00:24:01.921Z,6.60
2023-02-19T00:26:30.107Z,5.80
2023-02-19T00:28:59.440Z,7.70
2023-02-19T00:31:31.446Z,6.70
2023-02-19T00:34:03.116Z,6.20
2023-02-19T00:36:31.980Z,8.00
2023-02-19T00:38:59.683Z,6.30
2023-02-19T00:41:27.263Z,6.27
2023-02-19T00:43:56.116Z,6.63
2023-02-19T00:46:25.591Z,5.90
2023-02-19T00:48:53.339Z,6.83
2023-02-19T00:51:23.928Z,6.90
2023-02-19T00:53:51.857Z,6.30
2023-02-19T00:56:19.599Z,6.27
2023-02-19T00:58:47.693Z,6.00
2023-02-19T01:01:15.614Z,7.47
2023-02-19T01:03:43.791Z,6.40
2023-02-19T01:06:12.882Z,7.13
2023-02-19T01:08:42.007Z,6.20
2023-02-19T01:11:10.845Z,6.43
2023-02-19T01:13:39.234Z,6.57
2023-02-19T01:16:08.232Z,6.60
2023-02-19T01:18:36.327Z,7.70
2023-02-19T01:21:07.100Z,6.27
2023-02-19T01:23:35.001Z,6.37
2023-02-19T01:26:06.847Z,6.40
2023-02-19T01:28:34.401Z,6.23
2023-02-19T01:31:03.504Z,5.03
2023-02-19T01:33:31.818Z,5.37
2023-02-19T01:35:59.407Z,3.23
2023-02-19T01:38:27.117Z,3.50
2023-02-19T01:40:56.168Z,4.23
2023-02-19T01:43:25.455Z,3.70
2023-02-19T01:45:53.493Z,3.87
2023-02-19T01:48:22.353Z,5.00
2023-02-19T01:50:52.255Z,4.00
2023-02-19T01:53:23.466Z,4.03
2023-02-19T01:55:54.080Z,4.50
2023-02-19T01:58:22.112Z,4.20
2023-02-19T02:00:51.943Z,4.27
2023-02-19T02:03:20.030Z,4.07
2023-02-19T02:05:53.014Z,3.40
2023-02-19T02:08:38.344Z,3.23
2023-02-19T02:11:06.152Z,3.63
2023-02-19T02:13:34.576Z,3.33
2023-02-19T02:16:14.978Z,2.70
2023-02-19T02:18:52.526Z,2.70
2023-02-19T02:21:37.326Z,3.73
2023-02-19T02:24:13.704Z,3.90
2023-02-19T02:26:53.083Z,4.20
2023-02-19T02:29:37.351Z,4.20
2023-02-19T02:32:12.701Z,4.03
2023-02-19T02:34:47.244Z,4.00
2023-02-19T02:37:16.102Z,4.63
2023-02-19T02:39:45.784Z,4.70
2023-02-19T02:42:39.480Z,5.00
2023-02-19T02:45:39.677Z,4.30
2023-02-19T02:48:38.352Z,4.33
2023-02-19T02:51:11.867Z,3.67
2023-02-19T02:54:09.249Z,3.87
2023-02-19T02:56:37.267Z,3.77
2023-02-19T02:59:07.914Z,3.57
2023-02-19T03:01:56.699Z,4.07
2023-02-19T03:04:29.239Z,3.33
2023-02-19T03:06:58.252Z,3.53
2023-02-19T03:09:30.125Z,3.40
2023-02-19T03:12:19.694Z,3.70
2023-02-19T03:15:08.018Z,3.97
2023-02-19T03:17:57.162Z,3.53
2023-02-19T03:20:27.014Z,3.60
2023-02-19T03:22:56.970Z,3.47
2023-02-19T03:25:44.126Z,3.40
2023-02-19T03:28:17.605Z,4.60
2023-02-19T03:30:48.811Z,3.30
2023-02-19T03:33:18.381Z,3.70
2023-02-19T03:35:51.098Z,3.67
2023-02-19T03:38:21.426Z,3.20
2023-02-19T03:40:56.794Z,3.60
2023-02-19T03:43:27.926Z,3.07
2023-02-19T03:46:01.592Z,4.00
2023-02-19T03:48:32.832Z,3.20
2023-02-19T03:51:08.161Z,3.33
2023-02-19T03:53:41.605Z,3.73
2023-02-19T03:56:12.939Z,4.17
2023-02-19T03:58:45.746Z,4.07
2023-02-19T04:01:18.477Z,3.90
2023-02-19T04:03:48.290Z,3.90
2023-02-19T04:06:21.995Z,3.90
2023-02-19T04:08:54.265Z,3.67
2023-02-19T04:11:23.109Z,4.23
2023-02-19T04:13:56.459Z,4.57
2023-02-19T04:16:26.002Z,4.17
2023-02-19T04:18:55.915Z,3.40
2023-02-19T04:21:25.275Z,3.23
2023-02-19T04:23:53.040Z,3.70
2023-02-19T04:26:22.109Z,3.37
2023-02-19T04:28:49.746Z,3.13
2023-02-19T04:31:17.609Z,4.53
2023-02-19T04:33:45.240Z,4.27
2023-02-19T04:36:12.885Z,3.00
2023-02-19T04:38:41.760Z,3.67
2023-02-19T04:41:10.242Z,2.90
2023-02-19T04:43:38.072Z,3.60
2023-02-19T04:46:06.018Z,3.70
2023-02-19T04:48:33.598Z,3.23
2023-02-19T04:51:01.254Z,3.73
2023-02-19T04:53:28.828Z,3.77
2023-02-19T04:55:57.697Z,4.30
2023-02-19T04:58:25.247Z,3.57
2023-02-19T05:00:53.787Z,4.27
2023-02-19T05:03:21.326Z,3.43
2023-02-19T05:05:48.866Z,3.67
2023-02-19T05:08:16.396Z,4.67
2023-02-19T05:10:43.951Z,3.07
2023-02-19T05:13:12.884Z,3.67
2023-02-19T05:15:40.539Z,2.83
2023-02-19T05:18:08.134Z,2.80
2023-02-19T05:20:35.958Z,2.70
2023-02-19T05:23:03.550Z,3.10
2023-02-19T05:25:31.268Z,3.50
2023-02-19T05:28:16.965Z,2.80
2023-02-19T05:30:46.158Z,4.27
2023-02-19T05:33:14.692Z,2.30
2023-02-19T05:35:43.699Z,2.43
2023-02-19T05:38:12.075Z,2.53
2023-02-19T05:40:40.188Z,2.97
2023-02-19T05:43:08.480Z,2.70
2023-02-19T05:45:36.745Z,2.03
2023-02-19T05:48:06.608Z,3.50
2023-02-19T05:50:36.660Z,2.53
2023-02-19T05:53:13.732Z,2.67
2023-02-19T05:55:41.295Z,2.43
2023-02-19T05:58:09.021Z,2.70
2023-02-19T06:00:36.680Z,2.50
2023-02-19T06:03:05.605Z,3.17
2023-02-19T06:05:33.189Z,2.60
2023-02-19T06:08:00.768Z,3.10
2023-02-19T06:10:29.135Z,2.83
2023-02-19T06:12:56.735Z,2.67
2023-02-19T06:15:24.300Z,2.73
2023-02-19T06:17:51.864Z,3.50
2023-02-19T06:20:20.836Z,2.87
2023-02-19T06:22:50.826Z,2.40
2023-02-19T06:25:18.588Z,3.03
2023-02-19T06:27:46.511Z,3.07
2023-02-19T06:30:14.432Z,2.50
2023-02-19T06:32:41.986Z,3.10
2023-02-19T06:35:09.519Z,2.60
2023-02-19T06:37:38.532Z,2.67
2023-02-19T06:40:06.904Z,2.57
2023-02-19T06:42:34.449Z,2.70
2023-02-19T06:45:02.244Z,3.00
2023-02-19T06:47:32.285Z,2.37
2023-02-19T06:50:00.040Z,3.33
2023-02-19T06:52:27.796Z,2.90
2023-02-19T06:54:56.769Z,2.53
2023-02-19T06:57:24.383Z,2.67
2023-02-19T06:59:52.108Z,2.83
2023-02-19T07:02:19.688Z,2.37
2023-02-19T07:04:47.243Z,3.20
2023-02-19T07:07:14.829Z,3.07
2023-02-19T07:09:42.466Z,2.47
2023-02-19T07:12:11.782Z,2.63
2023-02-19T07:14:39.353Z,3.00
2023-02-19T07:17:06.907Z,3.00
2023-02-19T07:19:34.518Z,3.20
2023-02-19T07:22:02.193Z,3.00
2023-02-19T07:24:29.773Z,3.30
2023-02-19T07:26:57.367Z,3.97
2023-02-19T07:29:26.267Z,4.33
2023-02-19T07:31:54.076Z,3.67
2023-02-19T07:34:21.893Z,3.67
2023-02-19T07:36:49.478Z,4.53
2023-02-19T07:39:17.123Z,3.40
2023-02-19T07:41:44.688Z,4.93
2023-02-19T07:44:23.711Z,3.77
2023-02-19T07:46:52.752Z,4.60
2023-02-19T07:49:20.300Z,4.00
2023-02-19T07:51:47.990Z,4.20
2023-02-19T07:54:16.132Z,4.40
2023-02-19T07:56:43.804Z,5.07
2023-02-19T07:59:11.761Z,5.07
2023-02-19T08:01:57.318Z,4.20
2023-02-19T08:04:26.489Z,4.60
2023-02-19T08:06:54.495Z,4.70
2023-02-19T08:09:22.238Z,4.20
2023-02-19T08:12:07.302Z,4.80
2023-02-19T08:14:34.958Z,4.40
2023-02-19T08:17:03.249Z,4.00
2023-02-19T08:19:32.268Z,4.33
2023-02-19T08:22:00.914Z,5.60
2023-02-19T08:24:28.527Z,4.00
2023-02-19T08:26:56.086Z,4.00
2023-02-19T08:29:23.621Z,4.60
2023-02-19T08:31:51.233Z,4.80
2023-02-19T08:34:18.844Z,3.53
2023-02-19T08:36:47.862Z,4.00
2023-02-19T08:39:15.386Z,5.80
2023-02-19T08:41:43.151Z,4.00
2023-02-19T08:44:10.681Z,3.33
2023-02-19T08:46:38.758Z,5.43
2023-02-19T08:49:06.402Z,3.87
2023-02-19T08:51:33.979Z,3.17
2023-02-19T08:54:05.180Z,4.50
2023-02-19T08:56:32.739Z,2.87
2023-02-19T08:59:00.507Z,3.10
2023-02-19T09:01:28.123Z,2.90
2023-02-19T09:03:55.730Z,2.50
2023-02-19T09:06:23.288Z,2.20
2023-02-19T09:08:50.842Z,2.27
2023-02-19T09:11:19.980Z,2.23
2023-02-19T09:13:47.504Z,2.30
2023-02-19T09:16:15.047Z,2.30
2023-02-19T09:18:42.590Z,2.63
2023-02-19T09:21:10.443Z,2.27
2023-02-19T09:23:38.457Z,1.47
2023-02-19T09:26:09.855Z,2.03
2023-02-19T09:28:41.653Z,2.60
2023-02-19T09:31:12.256Z,2.07
2023-02-19T09:33:43.661Z,2.23
2023-02-19T09:36:11.958Z,2.07
2023-02-19T09:38:40.491Z,1.40
2023-02-19T09:41:10.526Z,2.13
2023-02-19T09:43:39.639Z,1.50
2023-02-19T09:46:12.892Z,1.50
2023-02-19T09:48:40.437Z,1.67
2023-02-19T09:51:09.200Z,2.13
2023-02-19T09:53:42.106Z,1.97
2023-02-19T09:56:09.865Z,1.23
2023-02-19T09:58:43.078Z,1.40
2023-02-19T10:01:12.984Z,1.33
2023-02-19T10:03:43.315Z,1.87
2023-02-19T10:06:19.326Z,1.40
2023-02-19T10:08:47.788Z,1.30
2023-02-19T10:11:15.906Z,1.53
2023-02-19T10:13:47.055Z,1.73
2023-02-19T10:16:17.622Z,1.37
2023-02-19T10:18:46.204Z,1.60
2023-02-19T10:21:16.842Z,1.83
2023-02-19T10:23:45.150Z,1.50
2023-02-19T10:26:13.575Z,1.20
2023-02-19T10:28:41.353Z,1.10
2023-02-19T10:31:21.049Z,1.10
2023-02-19T10:33:51.022Z,1.53
2023-02-19T10:36:26.524Z,1.03
2023-02-19T10:38:54.712Z,1.40
2023-02-19T10:41:24.149Z,1.40
2023-02-19T10:43:54.205Z,0.97
2023-02-19T10:46:25.779Z,1.13
2023-02-19T10:48:55.630Z,0.97
2023-02-19T10:51:31.986Z,1.30
2023-02-19T10:54:07.418Z,0.90
2023-02-19T10:56:37.483Z,1.20
2023-02-19T10:59:25.168Z,0.80
2023-02-19T11:01:59.038Z,1.70
2023-02-19T11:04:27.868Z,0.93
2023-02-19T11:06:55.682Z,1.00
2023-02-19T11:09:29.347Z,1.13
2023-02-19T11:11:57.814Z,0.60
2023-02-19T11:14:26.694Z,1.30
2023-02-19T11:16:56.412Z,0.90
2023-02-19T11:19:29.582Z,0.60
2023-02-19T11:21:58.289Z,1.00
2023-02-19T11:24:30.344Z,1.20
2023-02-19T11:26:59.459Z,1.03
2023-02-19T11:29:28.665Z,0.93
2023-02-19T11:31:56.982Z,0.67
2023-02-19T11:34:35.005Z,0.80
2023-02-19T11:37:10.555Z,0.90
2023-02-19T11:39:38.155Z,1.10
2023-02-19T11:42:18.334Z,0.90
2023-02-19T11:45:08.002Z,1.00
2023-02-19T11:47:55.353Z,0.80
2023-02-19T11:50:28.579Z,0.60
2023-02-19T11:53:03.737Z,0.90
2023-02-19T11:55:39.094Z,0.90
2023-02-19T11:58:20.600Z,0.90
2023-02-19T12:00:53.776Z,0.80
2023-02-19T12:03:30.439Z,1.27
2023-02-19T12:06:10.863Z,0.90
2023-02-19T12:09:04.229Z,0.50
2023-02-19T12:11:41.686Z,1.10
2023-02-19T12:14:28.800Z,0.93
2023-02-19T12:17:01.894Z,0.67
2023-02-19T12:19:39.851Z,0.80
2023-02-19T12:22:19.367Z,0.93
2023-02-19T12:25:05.567Z,0.90
2023-02-19T12:27:44.950Z,1.30
2023-02-19T12:30:31.729Z,1.10
2023-02-19T12:33:26.475Z,1.50
2023-02-19T12:36:01.751Z,1.20
2023-02-19T12:38:35.090Z,1.20
2023-02-19T12:41:28.633Z,1.13
2023-02-19T12:43:59.014Z,0.80
2023-02-19T12:46:30.735Z,0.70
2023-02-19T12:49:02.878Z,1.23
2023-02-19T12:51:34.072Z,2.00
2023-02-19T12:54:06.934Z,0.77
2023-02-19T12:56:37.844Z,1.07
2023-02-19T12:59:09.450Z,0.90
2023-02-19T13:01:46.666Z,1.30
2023-02-19T13:04:25.496Z,0.90
2023-02-19T13:06:57.663Z,0.73
2023-02-19T13:09:31.121Z,1.27
2023-02-19T13:12:00.986Z,1.17
2023-02-19T13:14:31.541Z,1.50
2023-02-19T13:17:02.452Z,1.00
2023-02-19T13:19:30.651Z,2.00
2023-02-19T13:22:23.767Z,1.43
2023-02-19T13:24:53.187Z,1.03
2023-02-19T13:27:33.653Z,1.63
2023-02-19T13:30:11.259Z,1.10
2023-02-19T13:32:52.317Z,1.10
2023-02-19T13:35:26.989Z,1.03
2023-02-19T13:37:56.084Z,1.10
2023-02-19T13:40:31.584Z,1.13
2023-02-19T13:43:00.305Z,1.30
2023-02-19T13:45:33.267Z,1.43
2023-02-19T13:48:03.830Z,0.90
2023-02-19T13:50:33.450Z,1.30
2023-02-19T13:53:01.755Z,1.17
2023-02-19T13:55:52.387Z,1.00
2023-02-19T13:58:54.832Z,0.77
2023-02-19T14:01:55.985Z,1.87
2023-02-19T14:04:25.538Z,1.17
2023-02-19T14:07:29.551Z,1.10
2023-02-19T14:09:58.473Z,1.30
2023-02-19T14:12:33.273Z,1.20
2023-02-19T14:15:34.196Z,1.03
2023-02-19T14:18:01.765Z,1.40
2023-02-19T14:20:44.878Z,0.83
2023-02-19T14:23:18.700Z,1.10
2023-02-19T14:25:52.727Z,0.87
2023-02-19T14:28:29.803Z,1.27
2023-02-19T14:30:59.004Z,1.67
2023-02-19T14:33:28.552Z,0.80
2023-02-19T14:35:58.341Z,1.00
2023-02-19T14:38:27.710Z,1.33
2023-02-19T14:40:58.046Z,0.73
2023-02-19T14:43:27.857Z,1.00
2023-02-19T14:45:57.778Z,1.00
2023-02-19T14:48:30.169Z,0.90
2023-02-19T14:51:01.416Z,0.73
2023-02-19T14:53:30.175Z,1.40
2023-02-19T14:55:58.825Z,0.93
2023-02-19T14:58:31.141Z,1.00
2023-02-19T15:00:58.724Z,1.83
2023-02-19T15:03:32.622Z,1.20
2023-02-19T15:06:03.774Z,0.67
2023-02-19T15:08:39.323Z,1.57
2023-02-19T15:11:11.426Z,1.17
2023-02-19T15:13:45.448Z,1.27
2023-02-19T15:16:26.271Z,1.10
2023-02-19T15:18:55.703Z,0.70
2023-02-19T15:21:25.877Z,1.00
2023-02-19T15:23:55.475Z,1.50
2023-02-19T15:26:25.006Z,1.20
2023-02-19T15:29:01.738Z,0.70
2023-02-19T15:31:29.717Z,1.60
2023-02-19T15:33:57.541Z,0.97
2023-02-19T15:36:28.386Z,1.00
2023-02-19T15:38:58.144Z,0.97
2023-02-19T15:41:28.476Z,1.10
2023-02-19T15:44:09.448Z,1.20
2023-02-19T15:46:37.401Z,1.00
2023-02-19T15:49:09.180Z,1.10
2023-02-19T15:51:40.812Z,1.50
2023-02-19T15:54:19.400Z,1.23
2023-02-19T15:56:51.088Z,1.70
2023-02-19T15:59:25.583Z,1.13
2023-02-19T16:01:53.235Z,2.10
2023-02-19T16:04:20.980Z,0.90
2023-02-19T16:06:54.183Z,1.20
2023-02-19T16:09:24.038Z,2.40
2023-02-19T16:11:53.229Z,1.80
2023-02-19T16:14:29.620Z,2.60
2023-02-19T16:16:59.356Z,1.57
2023-02-19T16:19:28.934Z,1.50
2023-02-19T16:21:56.704Z,1.80
2023-02-19T16:24:29.990Z,1.10
2023-02-19T16:26:58.647Z,2.17
2023-02-19T16:29:28.938Z,1.40
2023-02-19T16:31:59.514Z,1.93
2023-02-19T16:34:36.979Z,1.40
2023-02-19T16:37:04.910Z,1.30
2023-02-19T16:39:33.134Z,2.10
2023-02-19T16:42:14.425Z,1.97
2023-02-19T16:44:44.379Z,1.63
2023-02-19T16:47:18.192Z,1.60
2023-02-19T16:49:45.837Z,1.63
2023-02-19T16:52:16.740Z,2.00
2023-02-19T16:54:44.883Z,1.63
2023-02-19T16:57:12.755Z,2.30
2023-02-19T16:59:40.412Z,1.83
2023-02-19T17:02:12.177Z,1.27
2023-02-19T17:04:39.932Z,1.40
2023-02-19T17:07:07.693Z,2.00
2023-02-19T17:09:35.549Z,3.07
2023-02-19T17:12:03.395Z,1.77
2023-02-19T17:14:31.172Z,1.87
2023-02-19T17:17:01.720Z,1.50
2023-02-19T17:19:31.280Z,1.80
2023-02-19T17:21:59.708Z,1.73
2023-02-19T17:24:27.835Z,2.50
2023-02-19T17:26:55.628Z,1.57
2023-02-19T17:29:24.764Z,1.40
2023-02-19T17:31:52.777Z,2.03
2023-02-19T17:34:20.660Z,1.80
2023-02-19T17:36:51.986Z,1.40
2023-02-19T17:39:19.932Z,1.13
2023-02-19T17:41:47.788Z,1.20
2023-02-19T17:44:16.061Z,1.87
2023-02-19T17:46:44.377Z,1.63
2023-02-19T17:49:13.948Z,2.20
2023-02-19T17:51:41.925Z,1.30
2023-02-19T17:54:11.551Z,2.10
2023-02-19T17:56:43.174Z,1.50
2023-02-19T17:59:11.854Z,1.67
2023-02-19T18:01:40.454Z,2.17
2023-02-19T18:04:08.646Z,1.27
2023-02-19T18:06:36.529Z,2.07
2023-02-19T18:09:04.582Z,2.20
2023-02-19T18:11:37.455Z,1.80
2023-02-19T18:14:05.847Z,1.60
2023-02-19T18:16:36.339Z,1.73
2023-02-19T18:19:04.381Z,2.03
2023-02-19T18:21:32.433Z,2.00
2023-02-19T18:24:00.625Z,1.87
2023-02-19T18:26:31.546Z,2.03
2023-02-19T18:29:00.644Z,1.60
2023-02-19T18:31:28.438Z,1.60
2023-02-19T18:33:56.090Z,1.60
2023-02-19T18:36:24.189Z,1.60
2023-02-19T18:38:54.165Z,1.90
2023-02-19T18:41:22.174Z,2.00
2023-02-19T18:43:50.268Z,1.90
2023-02-19T18:46:22.801Z,1.83
2023-02-19T18:48:50.457Z,2.00
2023-02-19T18:51:18.298Z,1.80
2023-02-19T18:53:47.075Z,2.20
2023-02-19T18:56:19.599Z,1.20
2023-02-19T18:58:54.179Z,2.17
2023-02-19T19:01:23.663Z,1.83
2023-02-19T19:03:51.675Z,2.23
2023-02-19T19:06:22.923Z,2.27
2023-02-19T19:08:51.373Z,1.97
2023-02-19T19:11:19.676Z,2.00
2023-02-19T19:13:47.469Z,1.80
2023-02-19T19:16:15.251Z,1.63
2023-02-19T19:18:44.709Z,1.80
2023-02-19T19:21:15.733Z,1.90
2023-02-19T19:23:43.495Z,2.57
2023-02-19T19:26:12.414Z,1.90
2023-02-19T19:28:44.270Z,1.60
2023-02-19T19:31:13.202Z,1.27
2023-02-19T19:33:41.267Z,1.27
2023-02-19T19:36:11.982Z,1.53
2023-02-19T19:38:41.158Z,2.13
2023-02-19T19:41:08.717Z,1.83
2023-02-19T19:43:36.385Z,2.60
2023-02-19T19:46:04.802Z,2.50
2023-02-19T19:48:33.064Z,2.27
2023-02-19T19:51:00.661Z,2.40
2023-02-19T19:53:29.588Z,2.77
2023-02-19T19:55:57.229Z,2.43
2023-02-19T19:58:25.195Z,2.33
2023-02-19T20:00:53.571Z,2.27
2023-02-19T20:03:21.941Z,2.33
2023-02-19T20:05:51.309Z,3.80
2023-02-19T20:08:19.072Z,2.40
2023-02-19T20:10:48.050Z,2.37
2023-02-19T20:13:16.958Z,2.93
2023-02-19T20:15:44.667Z,2.30
2023-02-19T20:18:12.371Z,2.07
2023-02-19T20:20:39.925Z,2.60
2023-02-19T20:23:07.514Z,2.07
2023-02-19T20:25:35.145Z,2.53
2023-02-19T20:28:04.252Z,2.43
2023-02-19T20:30:31.874Z,2.10
2023-02-19T20:32:59.681Z,2.50
2023-02-19T20:35:29.743Z,20.93
2023-02-19T20:37:57.580Z,3.20
2023-02-19T20:40:27.426Z,2.73
2023-02-19T20:42:55.047Z,2.57
2023-02-19T20:45:24.357Z,2.37
2023-02-19T20:47:51.904Z,2.40
2023-02-19T20:50:19.969Z,2.10
2023-02-19T20:52:47.945Z,2.20
2023-02-19T20:55:15.579Z,2.50
2023-02-19T20:57:43.168Z,2.33
2023-02-19T21:00:11.413Z,2.23
2023-02-19T21:02:40.335Z,2.33
2023-02-19T21:05:08.643Z,2.07
2023-02-19T21:07:36.437Z,2.20
2023-02-19T21:10:04.483Z,3.07
2023-02-19T21:12:33.557Z,1.97
2023-02-19T21:15:01.472Z,2.40
2023-02-19T21:17:29.081Z,2.23
2023-02-19T21:19:58.083Z,1.83
2023-02-19T21:22:25.692Z,2.00
2023-02-19T21:24:53.720Z,2.80
2023-02-19T21:27:21.562Z,2.03
2023-02-19T21:29:49.116Z,2.43
2023-02-19T21:32:16.758Z,2.07
2023-02-19T21:34:44.814Z,2.53
2023-02-19T21:37:13.912Z,2.43
2023-02-19T21:39:43.391Z,1.90
2023-02-19T21:42:11.267Z,2.40
2023-02-19T21:44:39.030Z,1.70
2023-02-19T21:47:06.865Z,1.60
2023-02-19T21:49:34.384Z,2.50
2023-02-19T21:52:02.189Z,2.00
2023-02-19T21:54:31.104Z,2.00
2023-02-19T21:57:02.497Z,1.60
2023-02-19T21:59:30.325Z,1.30
2023-02-19T22:01:58.024Z,2.70
2023-02-19T22:04:25.643Z,1.97
2023-02-19T22:06:56.190Z,2.17
2023-02-19T22:09:24.536Z,1.57
2023-02-19T22:11:53.485Z,1.80
2023-02-19T22:14:21.021Z,1.50
2023-02-19T22:16:48.709Z,1.80
2023-02-19T22:19:16.366Z,2.03
2023-02-19T22:21:44.771Z,2.23
2023-02-19T22:24:17.402Z,2.00
2023-02-19T22:26:45.643Z,1.87
2023-02-19T22:29:16.199Z,2.30
2023-02-19T22:31:43.956Z,2.03
2023-02-19T22:34:11.558Z,2.53
2023-02-19T22:36:39.650Z,1.70
2023-02-19T22:39:08.802Z,2.30
2023-02-19T22:41:36.345Z,1.90
2023-02-19T22:44:03.906Z,2.27
2023-02-19T22:46:32.758Z,1.83
2023-02-19T22:49:03.705Z,2.60
2023-02-19T22:51:31.510Z,2.60
2023-02-19T22:54:01.433Z,1.80
2023-02-19T22:56:29.590Z,2.17
2023-02-19T22:58:58.000Z,2.43
2023-02-19T23:01:25.916Z,2.07
2023-02-19T23:03:56.797Z,2.20
2023-02-19T23:06:26.331Z,1.90
2023-02-19T23:08:54.537Z,1.90
2023-02-19T23:11:23.968Z,2.33
2023-02-19T23:13:51.658Z,1.60
2023-02-19T23:16:19.324Z,2.03
2023-02-19T23:18:47.102Z,1.80
2023-02-19T23:21:16.732Z,1.67
2023-02-19T23:23:44.988Z,1.90
2023-02-19T23:26:13.920Z,2.50
2023-02-19T23:28:42.458Z,1.80
2023-02-19T23:31:10.617Z,1.60
2023-02-19T23:33:38.191Z,2.63
2023-02-19T23:36:06.640Z,2.30
2023-02-19T23:38:35.529Z,2.60
2023-02-19T23:41:03.465Z,3.13
2023-02-19T23:43:31.139Z,1.60
2023-02-19T23:45:59.722Z,1.47
2023-02-19T23:48:27.269Z,2.27
2023-02-19T23:50:54.834Z,1.60
2023-02-19T23:53:22.371Z,2.50
2023-02-19T23:55:51.666Z,2.10
2023-02-19T23:58:19.427Z,2.13
